• Join FlightAware (Why Join?)
  • Login
  • US Flag 
03:58AM EDT


 

Airport Tracker/Info


-or-


 

Live Flight TrackerFlight Track Log ✈ N102WY ✈ 17-May-2013 ✈ KLAR - KGCC

Flight Track Log - Related Links

Times and Time Zones

All times are in EDT time to prevent confusion due to time zone crossing. See the N102WY flight status page for this flight to view local times or setup timezone preferences in your user account.

Time Position Orientation Groundspeed Altitude Reporting Facility
EDT Latitude Longitude Course Direction KTS MPH feet Rate Location/Type
03:17PM 41.2931 -105.6094 North 238 274 11,700  Level Denver Center
03:18PM 41.3594 -105.5994 North 243 280 14,100 2,880 Climbing Denver Center
03:19PM 41.4397 -105.6044 357° North 252 290 17,700 2,880 Climbing Denver Center
03:20PM 41.5125 -105.5972 North 271 312 20,100 2,520 Climbing Denver Center
03:21PM 41.6006 -105.5972 360° North 284 327 23,000 2,520 Climbing Denver Center
03:23PM 41.6794 -105.5939 North 292 336 25,400 2,460 Climbing Denver Center
03:24PM 41.7794 -105.5925 North 315 362 28,100 2,220 Climbing Denver Center
03:25PM 41.8667 -105.5914 North 326 375 30,100 1,740 Climbing Denver Center
03:26PM 41.9567 -105.5892 North 336 387 31,700 900 Climbing Denver Center
03:27PM 42.0722 -105.5875 North 364 419 32,000 120 Climbing Denver Center
03:28PM 42.1764 -105.5856 North 380 437 32,000  Level Denver Center
03:29PM 42.2961 -105.5833 North 383 441 32,000  Level Denver Center
03:30PM 42.3972 -105.5800 North 378 435 32,000  Level Denver Center
03:31PM 42.5194 -105.5789 360° North 391 450 32,000  Level Denver Center
03:32PM 42.6242 -105.5761 North 392 451 32,000  Level Denver Center
03:33PM 42.7467 -105.5736 North 392 451 32,000  Level Denver Center
03:34PM 42.8528 -105.5722 North 395 455 32,000 -240 Level Denver Center
03:35PM 42.9564 -105.5697 North 390 449 31,600 -780 Descending Denver Center
03:36PM 43.0808 -105.5678 North 398 458 30,500 -1,020 Descending Denver Center
03:37PM 43.1847 -105.5636 North 392 451 29,500 -1,020 Descending Denver Center
03:38PM 43.3042 -105.5442 North 388 447 28,400 -1,260 Descending Denver Center
03:39PM 43.4053 -105.5053 16° North 391 450 26,900 -1,920 Descending Denver Center
03:40PM 43.5256 -105.4639 14° North 396 456 24,500 -2,400 Descending Denver Center
03:41PM 43.6289 -105.4269 15° North 399 459 22,100 -2,580 Descending Denver Center
03:42PM 43.7467 -105.4150 North 385 443 19,300 -2,640 Descending Denver Center
03:43PM 43.8367 -105.4389 349° North 356 410 16,700 -2,640 Descending Denver Center
03:44PM 43.9261 -105.4553 352° North 344 396 13,900 -2,940 Descending Denver Center
03:45PM 44.0256 -105.4733 353° North 332 382 10,700 -2,520 Descending Denver Center
03:46PM 44.1033 -105.4872 353° North 323 372 8,800 -1,860 Descending Denver Center
03:48PM 44.2175 -105.5035 352° North  Level FlightAware Approximate
03:55PM 44.3333 -105.5333 North  Level FlightAware Approximate
03:56PM 44.3489 -105.5394 North  Level Estimated